sensor_id;sensor_type;location;lat;lon;timestamp;P1;durP1;ratioP1;P2;durP2;ratioP2
26102;SDS011;69760;49.380;8.998;2023-05-20T00:00:56;1.92;;;1.70;;
26102;SDS011;69760;49.380;8.998;2023-05-20T00:03:21;1.88;;;1.70;;
26102;SDS011;69760;49.380;8.998;2023-05-20T00:05:47;1.88;;;1.70;;
26102;SDS011;69760;49.380;8.998;2023-05-20T00:08:13;1.98;;;1.60;;
26102;SDS011;69760;49.380;8.998;2023-05-20T00:10:39;2.05;;;1.77;;
26102;SDS011;69760;49.380;8.998;2023-05-20T00:13:05;1.60;;;1.50;;
26102;SDS011;69760;49.380;8.998;2023-05-20T00:15:31;2.75;;;1.80;;
26102;SDS011;69760;49.380;8.998;2023-05-20T00:17:58;2.58;;;1.70;;
26102;SDS011;69760;49.380;8.998;2023-05-20T00:20:25;1.98;;;1.60;;
26102;SDS011;69760;49.380;8.998;2023-05-20T00:22:50;2.42;;;1.85;;
26102;SDS011;69760;49.380;8.998;2023-05-20T00:25:16;2.15;;;1.90;;
26102;SDS011;69760;49.380;8.998;2023-05-20T00:27:41;1.92;;;1.80;;
26102;SDS011;69760;49.380;8.998;2023-05-20T00:30:07;2.10;;;1.90;;
26102;SDS011;69760;49.380;8.998;2023-05-20T00:32:33;1.98;;;1.80;;
26102;SDS011;69760;49.380;8.998;2023-05-20T00:35:00;2.08;;;1.70;;
26102;SDS011;69760;49.380;8.998;2023-05-20T00:37:26;2.25;;;2.00;;
26102;SDS011;69760;49.380;8.998;2023-05-20T00:39:52;2.42;;;1.90;;
26102;SDS011;69760;49.380;8.998;2023-05-20T00:42:19;2.22;;;1.80;;
26102;SDS011;69760;49.380;8.998;2023-05-20T00:44:45;2.42;;;1.73;;
26102;SDS011;69760;49.380;8.998;2023-05-20T00:47:11;2.60;;;2.00;;
26102;SDS011;69760;49.380;8.998;2023-05-20T00:49:38;2.33;;;1.90;;
26102;SDS011;69760;49.380;8.998;2023-05-20T00:52:04;2.17;;;1.90;;
26102;SDS011;69760;49.380;8.998;2023-05-20T00:54:30;2.40;;;1.90;;
26102;SDS011;69760;49.380;8.998;2023-05-20T00:56:56;2.70;;;1.90;;
26102;SDS011;69760;49.380;8.998;2023-05-20T00:59:23;2.20;;;2.00;;
26102;SDS011;69760;49.380;8.998;2023-05-20T01:01:50;2.70;;;1.90;;
26102;SDS011;69760;49.380;8.998;2023-05-20T01:04:16;2.03;;;1.83;;
26102;SDS011;69760;49.380;8.998;2023-05-20T01:06:42;2.15;;;1.83;;
26102;SDS011;69760;49.380;8.998;2023-05-20T01:09:10;2.53;;;1.98;;
26102;SDS011;69760;49.380;8.998;2023-05-20T01:11:37;1.77;;;1.60;;
26102;SDS011;69760;49.380;8.998;2023-05-20T01:14:08;1.92;;;1.70;;
26102;SDS011;69760;49.380;8.998;2023-05-20T01:16:36;1.83;;;1.70;;
26102;SDS011;69760;49.380;8.998;2023-05-20T01:19:03;2.50;;;2.00;;
26102;SDS011;69760;49.380;8.998;2023-05-20T01:21:45;2.28;;;1.85;;
26102;SDS011;69760;49.380;8.998;2023-05-20T01:24:12;2.50;;;2.10;;
26102;SDS011;69760;49.380;8.998;2023-05-20T01:26:37;2.22;;;1.90;;
26102;SDS011;69760;49.380;8.998;2023-05-20T01:29:03;1.95;;;1.77;;
26102;SDS011;69760;49.380;8.998;2023-05-20T01:31:30;3.35;;;1.92;;
26102;SDS011;69760;49.380;8.998;2023-05-20T01:34:00;4.40;;;2.05;;
26102;SDS011;69760;49.380;8.998;2023-05-20T01:36:26;2.20;;;1.80;;
26102;SDS011;69760;49.380;8.998;2023-05-20T01:38:53;2.30;;;2.10;;
26102;SDS011;69760;49.380;8.998;2023-05-20T01:41:20;2.55;;;2.05;;
26102;SDS011;69760;49.380;8.998;2023-05-20T01:43:48;2.17;;;1.90;;
26102;SDS011;69760;49.380;8.998;2023-05-20T01:46:14;2.35;;;1.77;;
26102;SDS011;69760;49.380;8.998;2023-05-20T01:48:40;2.28;;;1.83;;
26102;SDS011;69760;49.380;8.998;2023-05-20T01:51:05;3.25;;;1.90;;
26102;SDS011;69760;49.380;8.998;2023-05-20T01:53:31;2.13;;;1.80;;
26102;SDS011;69760;49.380;8.998;2023-05-20T01:55:57;2.35;;;1.80;;
26102;SDS011;69760;49.380;8.998;2023-05-20T01:58:22;1.70;;;1.60;;
26102;SDS011;69760;49.380;8.998;2023-05-20T02:00:48;1.80;;;1.70;;
26102;SDS011;69760;49.380;8.998;2023-05-20T02:03:13;2.50;;;1.90;;
26102;SDS011;69760;49.380;8.998;2023-05-20T02:05:39;2.20;;;1.90;;
26102;SDS011;69760;49.380;8.998;2023-05-20T02:08:05;2.28;;;1.70;;
26102;SDS011;69760;49.380;8.998;2023-05-20T02:10:31;2.67;;;2.00;;
26102;SDS011;69760;49.380;8.998;2023-05-20T02:12:56;2.15;;;1.80;;
26102;SDS011;69760;49.380;8.998;2023-05-20T02:15:22;2.33;;;1.70;;
26102;SDS011;69760;49.380;8.998;2023-05-20T02:17:48;2.47;;;1.85;;
26102;SDS011;69760;49.380;8.998;2023-05-20T02:20:13;2.10;;;1.85;;
26102;SDS011;69760;49.380;8.998;2023-05-20T02:22:39;2.67;;;2.08;;
26102;SDS011;69760;49.380;8.998;2023-05-20T02:25:05;2.38;;;2.05;;
26102;SDS011;69760;49.380;8.998;2023-05-20T02:27:30;2.15;;;1.90;;
26102;SDS011;69760;49.380;8.998;2023-05-20T02:29:57;2.40;;;1.80;;
26102;SDS011;69760;49.380;8.998;2023-05-20T02:32:22;2.33;;;2.13;;
26102;SDS011;69760;49.380;8.998;2023-05-20T02:34:52;2.58;;;1.90;;
26102;SDS011;69760;49.380;8.998;2023-05-20T02:37:18;2.13;;;1.88;;
26102;SDS011;69760;49.380;8.998;2023-05-20T02:39:44;2.00;;;1.80;;
26102;SDS011;69760;49.380;8.998;2023-05-20T02:42:09;2.40;;;1.90;;
26102;SDS011;69760;49.380;8.998;2023-05-20T02:44:35;2.00;;;1.80;;
26102;SDS011;69760;49.380;8.998;2023-05-20T02:47:01;2.50;;;1.98;;
26102;SDS011;69760;49.380;8.998;2023-05-20T02:49:27;2.17;;;1.98;;
26102;SDS011;69760;49.380;8.998;2023-05-20T02:51:52;2.55;;;2.10;;
26102;SDS011;69760;49.380;8.998;2023-05-20T02:54:18;2.35;;;2.10;;
26102;SDS011;69760;49.380;8.998;2023-05-20T02:56:43;3.88;;;1.80;;
26102;SDS011;69760;49.380;8.998;2023-05-20T02:59:09;3.20;;;2.20;;
26102;SDS011;69760;49.380;8.998;2023-05-20T03:01:35;2.05;;;1.85;;
26102;SDS011;69760;49.380;8.998;2023-05-20T03:04:03;2.53;;;1.85;;
26102;SDS011;69760;49.380;8.998;2023-05-20T03:06:29;2.83;;;2.15;;
26102;SDS011;69760;49.380;8.998;2023-05-20T03:08:55;2.60;;;2.13;;
26102;SDS011;69760;49.380;8.998;2023-05-20T03:11:22;2.58;;;2.03;;
26102;SDS011;69760;49.380;8.998;2023-05-20T03:13:47;2.85;;;1.90;;
26102;SDS011;69760;49.380;8.998;2023-05-20T03:16:13;2.20;;;1.98;;
26102;SDS011;69760;49.380;8.998;2023-05-20T03:18:40;2.63;;;1.92;;
26102;SDS011;69760;49.380;8.998;2023-05-20T03:21:06;2.40;;;2.10;;
26102;SDS011;69760;49.380;8.998;2023-05-20T03:23:32;2.55;;;2.03;;
26102;SDS011;69760;49.380;8.998;2023-05-20T03:25:58;3.03;;;2.08;;
26102;SDS011;69760;49.380;8.998;2023-05-20T03:28:23;2.20;;;2.00;;
26102;SDS011;69760;49.380;8.998;2023-05-20T03:30:49;2.95;;;1.95;;
26102;SDS011;69760;49.380;8.998;2023-05-20T03:33:15;2.55;;;2.20;;
26102;SDS011;69760;49.380;8.998;2023-05-20T03:35:40;2.28;;;2.08;;
26102;SDS011;69760;49.380;8.998;2023-05-20T03:38:06;2.40;;;2.17;;
26102;SDS011;69760;49.380;8.998;2023-05-20T03:40:31;2.10;;;1.90;;
26102;SDS011;69760;49.380;8.998;2023-05-20T03:42:57;2.15;;;1.90;;
26102;SDS011;69760;49.380;8.998;2023-05-20T03:45:23;2.80;;;2.20;;
26102;SDS011;69760;49.380;8.998;2023-05-20T03:47:48;2.80;;;2.28;;
26102;SDS011;69760;49.380;8.998;2023-05-20T03:50:14;3.25;;;2.03;;
26102;SDS011;69760;49.380;8.998;2023-05-20T03:52:40;3.58;;;2.38;;
26102;SDS011;69760;49.380;8.998;2023-05-20T03:55:05;2.10;;;1.80;;
26102;SDS011;69760;49.380;8.998;2023-05-20T03:57:31;3.05;;;2.13;;
26102;SDS011;69760;49.380;8.998;2023-05-20T03:59:57;2.38;;;2.17;;
26102;SDS011;69760;49.380;8.998;2023-05-20T04:02:23;2.80;;;2.17;;
26102;SDS011;69760;49.380;8.998;2023-05-20T04:04:49;2.85;;;2.00;;
26102;SDS011;69760;49.380;8.998;2023-05-20T04:07:16;2.83;;;2.00;;
26102;SDS011;69760;49.380;8.998;2023-05-20T04:09:42;2.85;;;2.08;;
26102;SDS011;69760;49.380;8.998;2023-05-20T04:12:08;3.22;;;2.00;;
26102;SDS011;69760;49.380;8.998;2023-05-20T04:14:33;2.50;;;1.90;;
26102;SDS011;69760;49.380;8.998;2023-05-20T04:17:01;3.15;;;2.30;;
26102;SDS011;69760;49.380;8.998;2023-05-20T04:19:28;2.15;;;1.90;;
26102;SDS011;69760;49.380;8.998;2023-05-20T04:21:54;3.17;;;2.17;;
26102;SDS011;69760;49.380;8.998;2023-05-20T04:24:20;2.67;;;2.15;;
26102;SDS011;69760;49.380;8.998;2023-05-20T04:26:49;3.17;;;2.00;;
26102;SDS011;69760;49.380;8.998;2023-05-20T04:29:16;2.22;;;2.00;;
26102;SDS011;69760;49.380;8.998;2023-05-20T04:31:43;2.33;;;2.13;;
26102;SDS011;69760;49.380;8.998;2023-05-20T04:34:12;2.50;;;2.15;;
26102;SDS011;69760;49.380;8.998;2023-05-20T04:36:38;2.92;;;2.30;;
26102;SDS011;69760;49.380;8.998;2023-05-20T04:39:04;2.38;;;2.17;;
26102;SDS011;69760;49.380;8.998;2023-05-20T04:41:31;2.35;;;1.95;;
26102;SDS011;69760;49.380;8.998;2023-05-20T04:43:57;4.10;;;2.70;;
26102;SDS011;69760;49.380;8.998;2023-05-20T04:46:24;2.95;;;2.47;;
26102;SDS011;69760;49.380;8.998;2023-05-20T04:48:50;2.60;;;2.25;;
26102;SDS011;69760;49.380;8.998;2023-05-20T04:51:16;3.08;;;2.22;;
26102;SDS011;69760;49.380;8.998;2023-05-20T04:53:42;3.75;;;2.50;;
26102;SDS011;69760;49.380;8.998;2023-05-20T04:56:09;2.75;;;2.47;;
26102;SDS011;69760;49.380;8.998;2023-05-20T04:58:34;3.35;;;2.40;;
26102;SDS011;69760;49.380;8.998;2023-05-20T05:01:00;2.63;;;2.40;;
26102;SDS011;69760;49.380;8.998;2023-05-20T05:03:26;3.20;;;2.70;;
26102;SDS011;69760;49.380;8.998;2023-05-20T05:05:55;3.03;;;2.55;;
26102;SDS011;69760;49.380;8.998;2023-05-20T05:08:22;3.25;;;2.70;;
26102;SDS011;69760;49.380;8.998;2023-05-20T05:10:47;3.45;;;2.67;;
26102;SDS011;69760;49.380;8.998;2023-05-20T05:13:13;3.47;;;2.60;;
26102;SDS011;69760;49.380;8.998;2023-05-20T05:15:39;3.35;;;2.63;;
26102;SDS011;69760;49.380;8.998;2023-05-20T05:18:04;3.35;;;2.65;;
26102;SDS011;69760;49.380;8.998;2023-05-20T05:20:30;2.65;;;2.20;;
26102;SDS011;69760;49.380;8.998;2023-05-20T05:22:55;3.08;;;2.58;;
26102;SDS011;69760;49.380;8.998;2023-05-20T05:25:21;3.03;;;2.35;;
26102;SDS011;69760;49.380;8.998;2023-05-20T05:27:47;3.85;;;2.70;;
26102;SDS011;69760;49.380;8.998;2023-05-20T05:30:15;3.28;;;2.30;;
26102;SDS011;69760;49.380;8.998;2023-05-20T05:32:41;2.58;;;2.10;;
26102;SDS011;69760;49.380;8.998;2023-05-20T05:35:07;2.85;;;2.22;;
26102;SDS011;69760;49.380;8.998;2023-05-20T05:37:33;2.50;;;2.30;;
26102;SDS011;69760;49.380;8.998;2023-05-20T05:39:58;2.60;;;2.30;;
26102;SDS011;69760;49.380;8.998;2023-05-20T05:42:24;2.40;;;2.20;;
26102;SDS011;69760;49.380;8.998;2023-05-20T05:44:49;2.28;;;2.05;;
26102;SDS011;69760;49.380;8.998;2023-05-20T05:47:15;2.70;;;1.92;;
26102;SDS011;69760;49.380;8.998;2023-05-20T05:49:41;3.08;;;2.08;;
26102;SDS011;69760;49.380;8.998;2023-05-20T05:52:07;3.63;;;2.38;;
26102;SDS011;69760;49.380;8.998;2023-05-20T05:54:32;2.47;;;1.92;;
26102;SDS011;69760;49.380;8.998;2023-05-20T05:56:58;2.65;;;2.28;;
26102;SDS011;69760;49.380;8.998;2023-05-20T05:59:24;2.45;;;2.13;;
26102;SDS011;69760;49.380;8.998;2023-05-20T06:01:49;2.28;;;1.92;;
26102;SDS011;69760;49.380;8.998;2023-05-20T06:04:15;2.40;;;2.20;;
26102;SDS011;69760;49.380;8.998;2023-05-20T06:06:41;2.40;;;2.15;;
26102;SDS011;69760;49.380;8.998;2023-05-20T06:09:06;2.38;;;2.10;;
26102;SDS011;69760;49.380;8.998;2023-05-20T06:11:32;3.85;;;2.25;;
26102;SDS011;69760;49.380;8.998;2023-05-20T06:13:58;3.50;;;2.47;;
26102;SDS011;69760;49.380;8.998;2023-05-20T06:16:24;2.92;;;2.50;;
26102;SDS011;69760;49.380;8.998;2023-05-20T06:18:49;2.65;;;2.20;;
26102;SDS011;69760;49.380;8.998;2023-05-20T06:21:15;2.47;;;2.22;;
26102;SDS011;69760;49.380;8.998;2023-05-20T06:23:41;2.92;;;2.50;;
26102;SDS011;69760;49.380;8.998;2023-05-20T06:26:07;3.15;;;2.65;;
26102;SDS011;69760;49.380;8.998;2023-05-20T06:28:32;2.42;;;2.20;;
26102;SDS011;69760;49.380;8.998;2023-05-20T06:30:58;2.63;;;2.33;;
26102;SDS011;69760;49.380;8.998;2023-05-20T06:33:23;4.90;;;2.50;;
26102;SDS011;69760;49.380;8.998;2023-05-20T06:35:57;3.15;;;2.33;;
26102;SDS011;69760;49.380;8.998;2023-05-20T06:38:23;2.95;;;2.25;;
26102;SDS011;69760;49.380;8.998;2023-05-20T06:40:49;2.72;;;2.53;;
26102;SDS011;69760;49.380;8.998;2023-05-20T06:43:15;2.33;;;2.08;;
26102;SDS011;69760;49.380;8.998;2023-05-20T06:45:41;4.57;;;2.50;;
26102;SDS011;69760;49.380;8.998;2023-05-20T06:48:07;2.55;;;2.35;;
26102;SDS011;69760;49.380;8.998;2023-05-20T06:50:33;2.83;;;2.50;;
26102;SDS011;69760;49.380;8.998;2023-05-20T06:52:58;2.78;;;2.30;;
26102;SDS011;69760;49.380;8.998;2023-05-20T06:55:25;2.78;;;2.58;;
26102;SDS011;69760;49.380;8.998;2023-05-20T06:57:51;2.83;;;2.63;;
26102;SDS011;69760;49.380;8.998;2023-05-20T07:00:17;3.28;;;2.88;;
26102;SDS011;69760;49.380;8.998;2023-05-20T07:02:42;4.95;;;3.20;;
26102;SDS011;69760;49.380;8.998;2023-05-20T07:05:08;2.90;;;2.60;;
26102;SDS011;69760;49.380;8.998;2023-05-20T07:07:34;3.10;;;2.80;;
26102;SDS011;69760;49.380;8.998;2023-05-20T07:10:00;3.42;;;2.78;;
26102;SDS011;69760;49.380;8.998;2023-05-20T07:12:26;3.90;;;2.78;;
26102;SDS011;69760;49.380;8.998;2023-05-20T07:14:52;3.10;;;2.80;;
26102;SDS011;69760;49.380;8.998;2023-05-20T07:17:17;3.53;;;3.00;;
26102;SDS011;69760;49.380;8.998;2023-05-20T07:19:43;3.22;;;2.90;;
26102;SDS011;69760;49.380;8.998;2023-05-20T07:22:08;2.92;;;2.67;;
26102;SDS011;69760;49.380;8.998;2023-05-20T07:24:35;3.03;;;2.72;;
26102;SDS011;69760;49.380;8.998;2023-05-20T07:27:01;2.75;;;2.50;;
26102;SDS011;69760;49.380;8.998;2023-05-20T07:29:26;2.97;;;2.63;;
26102;SDS011;69760;49.380;8.998;2023-05-20T07:36:55;3.28;;;2.97;;
26102;SDS011;69760;49.380;8.998;2023-05-20T07:39:22;3.30;;;3.00;;
26102;SDS011;69760;49.380;8.998;2023-05-20T07:41:48;3.35;;;3.05;;
26102;SDS011;69760;49.380;8.998;2023-05-20T07:44:14;3.80;;;3.10;;
26102;SDS011;69760;49.380;8.998;2023-05-20T07:46:40;3.95;;;3.15;;
26102;SDS011;69760;49.380;8.998;2023-05-20T07:49:05;3.47;;;3.17;;
26102;SDS011;69760;49.380;8.998;2023-05-20T07:51:31;4.57;;;3.50;;
26102;SDS011;69760;49.380;8.998;2023-05-20T07:53:57;3.67;;;3.30;;
26102;SDS011;69760;49.380;8.998;2023-05-20T07:56:22;4.65;;;3.10;;
26102;SDS011;69760;49.380;8.998;2023-05-20T07:58:52;3.72;;;3.33;;
26102;SDS011;69760;49.380;8.998;2023-05-20T08:01:19;3.53;;;3.10;;
26102;SDS011;69760;49.380;8.998;2023-05-20T08:03:45;6.28;;;3.55;;
26102;SDS011;69760;49.380;8.998;2023-05-20T08:06:11;4.95;;;3.30;;
26102;SDS011;69760;49.380;8.998;2023-05-20T08:08:37;3.85;;;3.03;;
26102;SDS011;69760;49.380;8.998;2023-05-20T08:11:05;4.28;;;3.40;;
26102;SDS011;69760;49.380;8.998;2023-05-20T08:13:31;4.22;;;3.47;;
26102;SDS011;69760;49.380;8.998;2023-05-20T08:15:56;3.95;;;3.42;;
26102;SDS011;69760;49.380;8.998;2023-05-20T08:18:22;4.72;;;3.40;;
26102;SDS011;69760;49.380;8.998;2023-05-20T08:20:48;3.83;;;3.35;;
26102;SDS011;69760;49.380;8.998;2023-05-20T08:23:13;4.45;;;3.63;;
26102;SDS011;69760;49.380;8.998;2023-05-20T08:25:39;4.68;;;3.65;;
26102;SDS011;69760;49.380;8.998;2023-05-20T08:28:05;4.47;;;3.45;;
26102;SDS011;69760;49.380;8.998;2023-05-20T08:30:31;3.60;;;3.30;;
26102;SDS011;69760;49.380;8.998;2023-05-20T08:32:58;6.43;;;4.05;;
26102;SDS011;69760;49.380;8.998;2023-05-20T08:35:24;6.75;;;3.60;;
26102;SDS011;69760;49.380;8.998;2023-05-20T08:37:50;5.70;;;4.05;;
26102;SDS011;69760;49.380;8.998;2023-05-20T08:40:18;5.00;;;3.78;;
26102;SDS011;69760;49.380;8.998;2023-05-20T08:42:45;4.97;;;4.07;;
26102;SDS011;69760;49.380;8.998;2023-05-20T08:45:13;5.50;;;4.00;;
26102;SDS011;69760;49.380;8.998;2023-05-20T08:47:41;4.63;;;3.83;;
26102;SDS011;69760;49.380;8.998;2023-05-20T08:50:07;4.35;;;3.70;;
26102;SDS011;69760;49.380;8.998;2023-05-20T08:52:35;6.03;;;3.92;;
26102;SDS011;69760;49.380;8.998;2023-05-20T08:55:03;5.50;;;4.05;;
26102;SDS011;69760;49.380;8.998;2023-05-20T08:57:31;6.72;;;3.97;;
26102;SDS011;69760;49.380;8.998;2023-05-20T08:59:58;6.65;;;4.10;;
26102;SDS011;69760;49.380;8.998;2023-05-20T09:02:24;5.70;;;4.07;;
26102;SDS011;69760;49.380;8.998;2023-05-20T09:04:49;5.90;;;4.22;;
26102;SDS011;69760;49.380;8.998;2023-05-20T09:07:28;5.75;;;4.03;;
26102;SDS011;69760;49.380;8.998;2023-05-20T09:09:54;6.00;;;4.50;;
26102;SDS011;69760;49.380;8.998;2023-05-20T09:12:20;5.80;;;4.43;;
26102;SDS011;69760;49.380;8.998;2023-05-20T09:14:46;4.80;;;4.30;;
26102;SDS011;69760;49.380;8.998;2023-05-20T09:17:11;5.55;;;4.53;;
26102;SDS011;69760;49.380;8.998;2023-05-20T09:19:37;5.25;;;4.25;;
26102;SDS011;69760;49.380;8.998;2023-05-20T09:22:03;5.65;;;4.00;;
26102;SDS011;69760;49.380;8.998;2023-05-20T09:24:29;5.25;;;4.50;;
26102;SDS011;69760;49.380;8.998;2023-05-20T09:26:55;6.72;;;4.05;;
26102;SDS011;69760;49.380;8.998;2023-05-20T09:29:22;4.75;;;4.20;;
26102;SDS011;69760;49.380;8.998;2023-05-20T09:31:48;4.65;;;4.18;;
26102;SDS011;69760;49.380;8.998;2023-05-20T09:34:14;6.75;;;4.32;;
26102;SDS011;69760;49.380;8.998;2023-05-20T09:36:41;5.07;;;4.20;;
26102;SDS011;69760;49.380;8.998;2023-05-20T09:39:09;4.53;;;4.00;;
26102;SDS011;69760;49.380;8.998;2023-05-20T09:44:36;4.28;;;3.80;;
26102;SDS011;69760;49.380;8.998;2023-05-20T09:47:02;4.88;;;4.10;;
26102;SDS011;69760;49.380;8.998;2023-05-20T09:49:31;4.90;;;4.40;;
26102;SDS011;69760;49.380;8.998;2023-05-20T09:51:58;5.28;;;4.40;;
26102;SDS011;69760;49.380;8.998;2023-05-20T09:54:25;5.15;;;4.13;;
26102;SDS011;69760;49.380;8.998;2023-05-20T09:56:52;4.93;;;4.05;;
26102;SDS011;69760;49.380;8.998;2023-05-20T09:59:18;5.68;;;4.53;;
26102;SDS011;69760;49.380;8.998;2023-05-20T10:01:46;5.05;;;4.28;;
26102;SDS011;69760;49.380;8.998;2023-05-20T10:04:11;4.68;;;4.00;;
26102;SDS011;69760;49.380;8.998;2023-05-20T10:12:24;5.55;;;4.07;;
26102;SDS011;69760;49.380;8.998;2023-05-20T10:15:27;5.15;;;4.55;;
26102;SDS011;69760;49.380;8.998;2023-05-20T10:21:15;5.30;;;4.80;;
26102;SDS011;69760;49.380;8.998;2023-05-20T10:23:41;4.40;;;4.00;;
26102;SDS011;69760;49.380;8.998;2023-05-20T10:26:07;5.20;;;4.32;;
26102;SDS011;69760;49.380;8.998;2023-05-20T10:28:33;5.45;;;4.95;;
26102;SDS011;69760;49.380;8.998;2023-05-20T10:31:00;6.13;;;4.38;;
26102;SDS011;69760;49.380;8.998;2023-05-20T10:33:27;5.15;;;4.22;;
26102;SDS011;69760;49.380;8.998;2023-05-20T10:35:56;4.95;;;4.45;;
26102;SDS011;69760;49.380;8.998;2023-05-20T10:38:23;5.30;;;4.57;;
26102;SDS011;69760;49.380;8.998;2023-05-20T10:40:49;4.95;;;4.40;;
26102;SDS011;69760;49.380;8.998;2023-05-20T10:43:15;5.57;;;4.57;;
26102;SDS011;69760;49.380;8.998;2023-05-20T10:45:56;5.00;;;4.50;;
26102;SDS011;69760;49.380;8.998;2023-05-20T10:50:47;5.03;;;4.53;;
26102;SDS011;69760;49.380;8.998;2023-05-20T10:53:14;5.28;;;4.43;;
26102;SDS011;69760;49.380;8.998;2023-05-20T10:55:45;5.63;;;4.47;;
26102;SDS011;69760;49.380;8.998;2023-05-20T10:58:15;5.07;;;4.53;;
26102;SDS011;69760;49.380;8.998;2023-05-20T11:00:41;5.15;;;4.65;;
26102;SDS011;69760;49.380;8.998;2023-05-20T11:03:08;5.35;;;4.47;;
26102;SDS011;69760;49.380;8.998;2023-05-20T11:05:34;5.32;;;4.70;;
26102;SDS011;69760;49.380;8.998;2023-05-20T11:08:01;5.10;;;4.60;;
26102;SDS011;69760;49.380;8.998;2023-05-20T11:10:27;5.22;;;4.65;;
26102;SDS011;69760;49.380;8.998;2023-05-20T11:12:53;5.30;;;4.80;;
26102;SDS011;69760;49.380;8.998;2023-05-20T11:15:20;4.90;;;4.40;;
26102;SDS011;69760;49.380;8.998;2023-05-20T11:17:55;5.68;;;5.07;;
26102;SDS011;69760;49.380;8.998;2023-05-20T11:20:24;5.13;;;4.63;;
26102;SDS011;69760;49.380;8.998;2023-05-20T11:22:51;5.65;;;4.82;;
26102;SDS011;69760;49.380;8.998;2023-05-20T11:25:17;5.10;;;4.60;;
26102;SDS011;69760;49.380;8.998;2023-05-20T11:27:43;5.68;;;4.60;;
26102;SDS011;69760;49.380;8.998;2023-05-20T11:30:10;5.60;;;4.85;;
26102;SDS011;69760;49.380;8.998;2023-05-20T11:32:40;5.18;;;4.68;;
26102;SDS011;69760;49.380;8.998;2023-05-20T11:35:21;5.97;;;4.82;;
26102;SDS011;69760;49.380;8.998;2023-05-20T11:37:53;5.15;;;4.65;;
26102;SDS011;69760;49.380;8.998;2023-05-20T11:40:22;5.30;;;4.75;;
26102;SDS011;69760;49.380;8.998;2023-05-20T11:42:52;5.30;;;4.80;;
26102;SDS011;69760;49.380;8.998;2023-05-20T11:45:18;5.72;;;4.97;;
26102;SDS011;69760;49.380;8.998;2023-05-20T11:47:43;6.28;;;4.85;;
26102;SDS011;69760;49.380;8.998;2023-05-20T11:50:10;5.10;;;4.53;;
26102;SDS011;69760;49.380;8.998;2023-05-20T11:52:40;5.28;;;4.65;;
26102;SDS011;69760;49.380;8.998;2023-05-20T11:55:09;5.03;;;4.53;;
26102;SDS011;69760;49.380;8.998;2023-05-20T11:57:36;5.28;;;4.70;;
26102;SDS011;69760;49.380;8.998;2023-05-20T12:00:02;5.68;;;5.07;;
26102;SDS011;69760;49.380;8.998;2023-05-20T12:02:31;6.47;;;4.78;;
26102;SDS011;69760;49.380;8.998;2023-05-20T12:04:56;4.75;;;4.32;;
26102;SDS011;69760;49.380;8.998;2023-05-20T12:07:22;5.47;;;4.97;;
26102;SDS011;69760;49.380;8.998;2023-05-20T12:09:47;5.97;;;4.50;;
26102;SDS011;69760;49.380;8.998;2023-05-20T12:12:13;5.10;;;4.60;;
26102;SDS011;69760;49.380;8.998;2023-05-20T12:14:39;5.18;;;4.68;;
26102;SDS011;69760;49.380;8.998;2023-05-20T12:17:04;4.68;;;4.13;;
26102;SDS011;69760;49.380;8.998;2023-05-20T12:19:30;4.75;;;4.15;;
26102;SDS011;69760;49.380;8.998;2023-05-20T12:21:55;5.13;;;4.40;;
26102;SDS011;69760;49.380;8.998;2023-05-20T12:24:21;7.25;;;4.90;;
26102;SDS011;69760;49.380;8.998;2023-05-20T12:26:46;4.80;;;4.30;;
26102;SDS011;69760;49.380;8.998;2023-05-20T12:29:12;5.50;;;4.60;;
26102;SDS011;69760;49.380;8.998;2023-05-20T12:31:37;5.05;;;4.55;;
26102;SDS011;69760;49.380;8.998;2023-05-20T12:34:03;5.50;;;4.60;;
26102;SDS011;69760;49.380;8.998;2023-05-20T12:36:29;5.85;;;5.10;;
26102;SDS011;69760;49.380;8.998;2023-05-20T12:38:55;5.75;;;4.60;;
26102;SDS011;69760;49.380;8.998;2023-05-20T12:41:20;5.45;;;4.90;;
26102;SDS011;69760;49.380;8.998;2023-05-20T12:43:46;6.32;;;4.63;;
26102;SDS011;69760;49.380;8.998;2023-05-20T12:46:12;5.75;;;5.00;;
26102;SDS011;69760;49.380;8.998;2023-05-20T12:48:37;4.80;;;4.30;;
26102;SDS011;69760;49.380;8.998;2023-05-20T12:51:03;5.60;;;4.70;;
26102;SDS011;69760;49.380;8.998;2023-05-20T12:53:28;5.15;;;4.60;;
26102;SDS011;69760;49.380;8.998;2023-05-20T12:55:54;5.25;;;4.70;;
26102;SDS011;69760;49.380;8.998;2023-05-20T12:58:20;5.82;;;5.22;;
26102;SDS011;69760;49.380;8.998;2023-05-20T13:00:45;5.72;;;4.90;;
26102;SDS011;69760;49.380;8.998;2023-05-20T13:03:11;5.68;;;5.10;;
26102;SDS011;69760;49.380;8.998;2023-05-20T13:05:36;5.88;;;4.75;;
26102;SDS011;69760;49.380;8.998;2023-05-20T13:08:02;5.38;;;4.88;;
26102;SDS011;69760;49.380;8.998;2023-05-20T13:10:27;5.15;;;4.60;;
26102;SDS011;69760;49.380;8.998;2023-05-20T13:12:55;6.15;;;4.82;;
26102;SDS011;69760;49.380;8.998;2023-05-20T13:15:20;5.43;;;4.72;;
26102;SDS011;69760;49.380;8.998;2023-05-20T13:17:46;5.57;;;4.75;;
26102;SDS011;69760;49.380;8.998;2023-05-20T13:20:11;5.70;;;5.10;;
26102;SDS011;69760;49.380;8.998;2023-05-20T13:22:37;5.85;;;5.20;;
26102;SDS011;69760;49.380;8.998;2023-05-20T13:25:03;6.03;;;4.80;;
26102;SDS011;69760;49.380;8.998;2023-05-20T13:27:29;5.45;;;4.88;;
26102;SDS011;69760;49.380;8.998;2023-05-20T13:29:54;6.13;;;5.20;;
26102;SDS011;69760;49.380;8.998;2023-05-20T13:32:20;6.07;;;5.18;;
26102;SDS011;69760;49.380;8.998;2023-05-20T13:37:13;6.22;;;5.13;;
26102;SDS011;69760;49.380;8.998;2023-05-20T13:39:39;6.80;;;5.63;;
26102;SDS011;69760;49.380;8.998;2023-05-20T13:42:05;5.90;;;5.32;;
26102;SDS011;69760;49.380;8.998;2023-05-20T13:44:30;5.72;;;4.97;;
26102;SDS011;69760;49.380;8.998;2023-05-20T13:46:56;7.38;;;4.95;;
26102;SDS011;69760;49.380;8.998;2023-05-20T13:49:21;5.65;;;4.97;;
26102;SDS011;69760;49.380;8.998;2023-05-20T13:51:49;6.97;;;5.13;;
26102;SDS011;69760;49.380;8.998;2023-05-20T13:54:15;5.90;;;5.30;;
26102;SDS011;69760;49.380;8.998;2023-05-20T13:56:40;6.18;;;5.00;;
26102;SDS011;69760;49.380;8.998;2023-05-20T13:59:06;6.05;;;5.45;;
26102;SDS011;69760;49.380;8.998;2023-05-20T14:01:32;5.30;;;4.80;;
26102;SDS011;69760;49.380;8.998;2023-05-20T14:03:57;5.35;;;4.82;;
26102;SDS011;69760;49.380;8.998;2023-05-20T14:06:23;5.93;;;4.85;;
26102;SDS011;69760;49.380;8.998;2023-05-20T14:08:52;5.70;;;5.10;;
26102;SDS011;69760;49.380;8.998;2023-05-20T14:11:21;5.07;;;4.57;;
26102;SDS011;69760;49.380;8.998;2023-05-20T14:13:47;5.65;;;5.10;;
26102;SDS011;69760;49.380;8.998;2023-05-20T14:16:12;6.10;;;5.22;;
26102;SDS011;69760;49.380;8.998;2023-05-20T14:18:38;5.82;;;5.22;;
26102;SDS011;69760;49.380;8.998;2023-05-20T14:21:03;5.93;;;5.32;;
26102;SDS011;69760;49.380;8.998;2023-05-20T14:23:29;6.15;;;5.32;;
26102;SDS011;69760;49.380;8.998;2023-05-20T14:25:55;5.95;;;5.35;;
26102;SDS011;69760;49.380;8.998;2023-05-20T14:28:20;5.95;;;5.35;;
26102;SDS011;69760;49.380;8.998;2023-05-20T14:30:46;6.05;;;5.45;;
26102;SDS011;69760;49.380;8.998;2023-05-20T14:33:12;5.78;;;5.20;;
26102;SDS011;69760;49.380;8.998;2023-05-20T14:35:37;5.43;;;4.90;;
26102;SDS011;69760;49.380;8.998;2023-05-20T14:38:03;5.85;;;5.25;;
26102;SDS011;69760;49.380;8.998;2023-05-20T14:40:28;5.70;;;5.10;;
26102;SDS011;69760;49.380;8.998;2023-05-20T14:42:54;6.22;;;5.63;;
26102;SDS011;69760;49.380;8.998;2023-05-20T14:45:19;6.13;;;5.53;;
26102;SDS011;69760;49.380;8.998;2023-05-20T14:47:45;5.75;;;5.15;;
26102;SDS011;69760;49.380;8.998;2023-05-20T14:50:10;6.30;;;5.32;;
26102;SDS011;69760;49.380;8.998;2023-05-20T14:52:36;7.72;;;5.63;;
26102;SDS011;69760;49.380;8.998;2023-05-20T14:55:02;7.05;;;5.35;;
26102;SDS011;69760;49.380;8.998;2023-05-20T14:57:27;5.90;;;5.28;;
26102;SDS011;69760;49.380;8.998;2023-05-20T14:59:53;6.30;;;5.70;;
26102;SDS011;69760;49.380;8.998;2023-05-20T15:02:19;5.28;;;4.78;;
26102;SDS011;69760;49.380;8.998;2023-05-20T15:04:45;5.97;;;5.38;;